createdAt,value
2018-09-17T00:00:24.475Z,33.2
2018-09-17T00:01:26.039Z,32.3
2018-09-17T00:02:27.608Z,32.3
2018-09-17T00:03:29.168Z,32.3
2018-09-17T00:04:30.750Z,32.7
2018-09-17T00:05:31.818Z,32.7
2018-09-17T00:06:33.205Z,32.7
2018-09-17T00:07:34.780Z,33.2
2018-09-17T00:08:36.346Z,32.3
2018-09-17T00:09:37.899Z,32.7
2018-09-17T00:10:39.462Z,33.2
2018-09-17T00:11:41.029Z,32.7
2018-09-17T00:12:42.420Z,33.2
2018-09-17T00:13:43.987Z,32.3
2018-09-17T00:14:45.551Z,32.3
2018-09-17T00:15:47.119Z,32.7
2018-09-17T00:16:48.678Z,32.3
2018-09-17T00:17:50.245Z,33.2
2018-09-17T00:18:51.879Z,32.7
2018-09-17T00:19:53.429Z,32.7
2018-09-17T00:20:54.835Z,32.7
2018-09-17T00:21:56.397Z,33.2
2018-09-17T00:22:57.962Z,32.7
2018-09-17T00:23:59.526Z,32.3
2018-09-17T00:25:01.095Z,32.7
2018-09-17T00:26:02.665Z,32.7
2018-09-17T00:27:04.219Z,32.7
2018-09-17T00:28:05.772Z,32.3
2018-09-17T00:29:07.328Z,32.3
2018-09-17T00:30:08.876Z,32.3
2018-09-17T00:31:10.276Z,32.3
2018-09-17T00:32:11.687Z,32.3
2018-09-17T00:33:13.266Z,32.3
2018-09-17T00:34:14.849Z,32.3
2018-09-17T00:35:16.413Z,32.7
2018-09-17T00:36:17.976Z,32.3
2018-09-17T00:37:19.539Z,32.7
2018-09-17T00:38:20.938Z,32.3
2018-09-17T00:39:22.499Z,32.3
2018-09-17T00:40:24.058Z,33.2
2018-09-17T00:41:25.613Z,33.2
2018-09-17T00:42:27.017Z,32.7
2018-09-17T00:43:28.601Z,32.7
2018-09-17T00:44:29.997Z,32.7
2018-09-17T00:45:31.548Z,32.7
2018-09-17T00:46:33.123Z,32.7
2018-09-17T00:47:34.508Z,32.3
2018-09-17T00:48:36.102Z,32.3
2018-09-17T00:49:37.732Z,32.7
2018-09-17T00:50:39.286Z,32.7
2018-09-17T00:51:40.855Z,32.3
2018-09-17T00:52:42.427Z,31.8
2018-09-17T00:53:43.975Z,32.3
2018-09-17T00:54:45.532Z,31.3
2018-09-17T00:55:46.918Z,33.2
2018-09-17T00:56:48.487Z,32.7
2018-09-17T00:57:50.389Z,32.3
2018-09-17T00:58:52.255Z,32.7
2018-09-17T00:59:53.821Z,32.3
2018-09-17T01:00:55.400Z,32.3
2018-09-17T01:01:56.957Z,32.3
2018-09-17T01:02:58.506Z,32.7
2018-09-17T01:04:00.069Z,32.3
2018-09-17T01:05:01.465Z,32.3
2018-09-17T01:06:02.884Z,32.3
2018-09-17T01:07:04.296Z,32.3
2018-09-17T01:08:05.878Z,30.3
2018-09-17T01:09:07.457Z,28.8
2018-09-17T01:10:09.013Z,27.4
2018-09-17T01:11:10.570Z,26.9
2018-09-17T01:12:12.119Z,26.9
2018-09-17T01:13:13.700Z,27.9
2018-09-17T01:14:15.256Z,28.8
2018-09-17T01:15:16.818Z,30.3
2018-09-17T01:16:18.373Z,31.8
2018-09-17T01:17:19.940Z,32.7
2018-09-17T01:18:21.508Z,33.7
2018-09-17T01:19:23.058Z,35.2
2018-09-17T01:20:24.445Z,35.2
2018-09-17T01:21:26.006Z,36.2
2018-09-17T01:22:28.109Z,36.7
2018-09-17T01:23:29.669Z,37.1
2018-09-17T01:24:31.215Z,37.6
2018-09-17T01:25:32.777Z,38.6
2018-09-17T01:26:34.326Z,39.6
2018-09-17T01:27:35.885Z,39.1
2018-09-17T01:28:37.503Z,40.1
2018-09-17T01:29:39.061Z,39.1
2018-09-17T01:30:40.637Z,39.1
2018-09-17T01:31:42.210Z,40.1
2018-09-17T01:32:43.777Z,41.1
2018-09-17T01:33:45.003Z,41.1
2018-09-17T01:34:46.569Z,40.6
2018-09-17T01:35:48.124Z,40.6
2018-09-17T01:36:49.676Z,39.6
2018-09-17T01:37:51.237Z,40.1
2018-09-17T01:38:52.819Z,40.1
2018-09-17T01:39:54.386Z,40.6
2018-09-17T01:40:55.774Z,40.1
2018-09-17T01:41:57.334Z,41.1
2018-09-17T01:42:58.884Z,40.1
2018-09-17T01:44:00.269Z,40.6
2018-09-17T01:45:01.839Z,40.6
2018-09-17T01:46:03.584Z,40.1
2018-09-17T01:47:05.252Z,40.1
2018-09-17T01:48:06.822Z,40.6
2018-09-17T01:49:08.391Z,40.1
2018-09-17T01:50:09.956Z,41.1
2018-09-17T01:51:11.549Z,40.1
2018-09-17T01:52:13.110Z,41.1
2018-09-17T01:53:14.668Z,40.6
2018-09-17T01:54:16.235Z,41.1
2018-09-17T01:55:17.798Z,41.1
2018-09-17T01:56:19.357Z,41.5
2018-09-17T01:57:20.907Z,41.1
2018-09-17T01:58:22.315Z,40.6
2018-09-17T01:59:23.916Z,40.6
2018-09-17T02:00:25.471Z,41.1
2018-09-17T02:01:27.034Z,41.1
2018-09-17T02:02:28.461Z,41.1
2018-09-17T02:03:30.016Z,40.1
2018-09-17T02:04:31.570Z,40.6
2018-09-17T02:05:33.133Z,39.6
2018-09-17T02:06:34.709Z,41.5
2018-09-17T02:07:36.272Z,40.6
2018-09-17T02:08:38.252Z,40.6
2018-09-17T02:09:39.969Z,40.6
2018-09-17T02:10:41.220Z,40.6
2018-09-17T02:11:42.791Z,40.1
2018-09-17T02:12:44.212Z,40.1
2018-09-17T02:13:45.760Z,39.6
2018-09-17T02:14:47.307Z,40.1
2018-09-17T02:15:48.710Z,40.6
2018-09-17T02:16:50.274Z,41.1
2018-09-17T02:17:51.847Z,40.6
2018-09-17T02:18:53.238Z,39.6
2018-09-17T02:19:54.793Z,40.6
2018-09-17T02:20:56.351Z,40.6
2018-09-17T02:21:57.908Z,41.1
2018-09-17T02:22:59.468Z,40.6
2018-09-17T02:24:01.053Z,40.1
2018-09-17T02:25:02.643Z,40.1
2018-09-17T02:26:04.191Z,39.6
2018-09-17T02:27:05.586Z,40.6
2018-09-17T02:28:07.153Z,39.6
2018-09-17T02:29:08.553Z,40.1
2018-09-17T02:30:10.120Z,39.6
2018-09-17T02:31:11.694Z,40.1
2018-09-17T02:32:13.262Z,39.6
2018-09-17T02:33:14.807Z,39.6
2018-09-17T02:34:16.373Z,40.6
2018-09-17T02:35:17.944Z,40.1
2018-09-17T02:36:19.168Z,40.1
2018-09-17T02:37:20.569Z,40.6
2018-09-17T02:38:22.150Z,40.1
2018-09-17T02:39:23.751Z,39.6
2018-09-17T02:40:25.321Z,40.1
2018-09-17T02:41:26.890Z,39.1
2018-09-17T02:42:28.308Z,39.6
2018-09-17T02:43:29.724Z,39.6
2018-09-17T02:44:31.286Z,39.1
2018-09-17T02:45:32.694Z,39.6
2018-09-17T02:46:34.236Z,39.1
2018-09-17T02:47:35.801Z,39.1
2018-09-17T02:48:37.465Z,39.1
2018-09-17T02:49:39.102Z,39.1
2018-09-17T02:50:40.658Z,39.6
2018-09-17T02:51:42.065Z,39.6
2018-09-17T02:52:43.629Z,39.1
2018-09-17T02:53:45.676Z,39.6
2018-09-17T02:54:47.242Z,39.1
2018-09-17T02:55:48.807Z,39.1
2018-09-17T02:56:50.363Z,38.6
2018-09-17T02:57:51.783Z,39.1
2018-09-17T02:58:53.201Z,39.1
2018-09-17T02:59:54.773Z,39.1
2018-09-17T03:00:56.169Z,38.6
2018-09-17T03:01:57.730Z,39.1
2018-09-17T03:02:59.298Z,39.1
2018-09-17T03:04:00.859Z,39.1
2018-09-17T03:05:02.490Z,38.6
2018-09-17T03:06:04.056Z,38.6
2018-09-17T03:07:05.626Z,39.1
2018-09-17T03:08:07.198Z,38.6
2018-09-17T03:09:08.758Z,39.1
2018-09-17T03:10:10.325Z,39.1
2018-09-17T03:11:11.905Z,38.6
2018-09-17T03:12:13.476Z,38.6
2018-09-17T03:13:15.059Z,38.1
2018-09-17T03:14:16.598Z,39.1
2018-09-17T03:15:18.155Z,38.6
2018-09-17T03:16:19.707Z,38.1
2018-09-17T03:17:21.266Z,38.6
2018-09-17T03:18:22.838Z,39.6
2018-09-17T03:19:24.416Z,37.6
2018-09-17T03:20:25.987Z,38.6
2018-09-17T03:21:27.542Z,38.1
2018-09-17T03:22:29.089Z,38.1
2018-09-17T03:23:30.646Z,38.6
2018-09-17T03:24:32.645Z,38.6
2018-09-17T03:25:34.168Z,38.6
2018-09-17T03:26:35.780Z,38.1
2018-09-17T03:27:37.345Z,39.1
2018-09-17T03:28:38.903Z,38.6
2018-09-17T03:29:40.457Z,39.6
2018-09-17T03:30:41.878Z,39.1
2018-09-17T03:31:43.444Z,39.1
2018-09-17T03:32:44.841Z,39.1
2018-09-17T03:33:46.418Z,39.1
2018-09-17T03:34:47.993Z,39.6
2018-09-17T03:35:49.574Z,39.6
2018-09-17T03:36:51.177Z,39.1
2018-09-17T03:37:52.737Z,40.6
2018-09-17T03:38:54.291Z,40.1
2018-09-17T03:39:55.857Z,40.1
2018-09-17T03:40:57.438Z,40.1
2018-09-17T03:41:58.846Z,40.6
2018-09-17T03:43:00.410Z,40.6
2018-09-17T03:44:01.973Z,40.6
2018-09-17T03:45:03.397Z,40.6
2018-09-17T03:46:05.103Z,40.6
2018-09-17T03:47:06.757Z,40.6
2018-09-17T03:48:08.326Z,41.1
2018-09-17T03:49:09.877Z,40.6
2018-09-17T03:50:11.438Z,41.5
2018-09-17T03:51:13.005Z,40.6
2018-09-17T03:52:14.584Z,40.6
2018-09-17T03:53:16.911Z,41.1
2018-09-17T03:54:18.768Z,40.6
2018-09-17T03:55:20.428Z,40.1
2018-09-17T03:56:21.860Z,41.1
2018-09-17T03:57:23.447Z,40.6
2018-09-17T03:58:25.107Z,41.5
2018-09-17T03:59:26.683Z,40.1
2018-09-17T04:00:28.250Z,40.6
2018-09-17T04:01:29.839Z,40.1
2018-09-17T04:02:31.395Z,41.1
2018-09-17T04:03:32.957Z,41.1
2018-09-17T04:04:34.522Z,40.6
2018-09-17T04:05:36.087Z,41.1
2018-09-17T04:06:37.469Z,40.6
2018-09-17T04:07:39.017Z,40.1
2018-09-17T04:08:40.566Z,40.6
2018-09-17T04:09:42.119Z,41.1
2018-09-17T04:10:43.671Z,40.6
2018-09-17T04:11:45.069Z,40.1
2018-09-17T04:12:46.625Z,40.6
2018-09-17T04:13:48.193Z,39.6
2018-09-17T04:14:49.748Z,40.1
2018-09-17T04:15:50.985Z,39.1
2018-09-17T04:16:52.561Z,40.1
2018-09-17T04:17:54.121Z,40.6
2018-09-17T04:18:55.675Z,40.1
2018-09-17T04:19:57.233Z,40.6
2018-09-17T04:20:58.785Z,40.6
2018-09-17T04:22:00.350Z,40.6
2018-09-17T04:23:01.921Z,40.1
2018-09-17T04:24:03.487Z,39.6
2018-09-17T04:25:05.092Z,40.1
2018-09-17T04:26:06.670Z,39.6
2018-09-17T04:27:08.257Z,40.1
2018-09-17T04:28:09.809Z,39.6
2018-09-17T04:29:11.380Z,39.6
2018-09-17T04:30:12.624Z,40.6
2018-09-17T04:31:14.239Z,39.1
2018-09-17T04:32:15.661Z,39.6
2018-09-17T04:33:17.237Z,39.6
2018-09-17T04:34:18.800Z,39.6
2018-09-17T04:35:20.374Z,40.1
2018-09-17T04:36:21.801Z,39.1
2018-09-17T04:37:23.358Z,39.6
2018-09-17T04:38:24.941Z,39.1
2018-09-17T04:39:26.499Z,39.1
2018-09-17T04:40:28.059Z,40.1
2018-09-17T04:41:29.614Z,39.1
2018-09-17T04:42:31.167Z,38.6
2018-09-17T04:43:32.577Z,39.6
2018-09-17T04:44:33.964Z,39.1
2018-09-17T04:45:35.526Z,39.6
2018-09-17T04:46:37.089Z,39.1
2018-09-17T04:47:38.675Z,39.6
2018-09-17T04:48:40.071Z,39.1
2018-09-17T04:49:41.636Z,38.6
2018-09-17T04:50:43.181Z,39.1
2018-09-17T04:51:44.754Z,39.6
2018-09-17T04:52:46.333Z,39.6
2018-09-17T04:53:47.721Z,38.6
2018-09-17T04:54:49.293Z,38.1
2018-09-17T04:55:50.849Z,40.1
2018-09-17T04:56:52.253Z,39.1
2018-09-17T04:57:53.825Z,39.1
2018-09-17T04:58:55.384Z,39.1
2018-09-17T04:59:56.938Z,38.6
2018-09-17T05:00:58.499Z,38.1
2018-09-17T05:02:00.069Z,39.1
2018-09-17T05:03:01.636Z,38.6
2018-09-17T05:04:03.206Z,39.1
2018-09-17T05:05:04.779Z,38.6
2018-09-17T05:06:38.273Z,38.1
2018-09-17T05:07:39.825Z,38.6
2018-09-17T05:08:41.404Z,39.1
2018-09-17T05:09:42.961Z,39.1
2018-09-17T05:10:44.361Z,39.1
2018-09-17T05:11:45.941Z,37.6
2018-09-17T05:12:47.521Z,38.6
2018-09-17T05:13:49.088Z,39.1
2018-09-17T05:14:50.649Z,38.1
2018-09-17T05:15:52.228Z,38.6
2018-09-17T05:16:53.791Z,39.1
2018-09-17T05:17:55.367Z,38.6
2018-09-17T05:18:56.941Z,38.6
2018-09-17T05:19:58.507Z,38.6
2018-09-17T05:21:00.079Z,38.6
2018-09-17T05:22:01.641Z,38.1
2018-09-17T05:23:03.220Z,38.6
2018-09-17T05:24:04.805Z,38.6
2018-09-17T05:25:06.355Z,39.6
2018-09-17T05:26:07.607Z,39.1
2018-09-17T05:27:09.187Z,39.6
2018-09-17T05:28:10.599Z,39.6
2018-09-17T05:29:11.997Z,39.1
2018-09-17T05:30:13.552Z,38.6
2018-09-17T05:31:15.115Z,39.6
2018-09-17T05:32:16.680Z,39.1
2018-09-17T05:33:18.268Z,39.6
2018-09-17T05:34:19.870Z,39.6
2018-09-17T05:35:21.441Z,39.6
2018-09-17T05:36:23.017Z,40.1
2018-09-17T05:37:24.431Z,40.6
2018-09-17T05:38:25.979Z,40.6
2018-09-17T05:39:27.559Z,40.6
2018-09-17T05:40:29.116Z,40.6
2018-09-17T05:41:30.798Z,40.1
2018-09-17T05:42:32.421Z,40.6
2018-09-17T05:43:34.098Z,40.6
2018-09-17T05:44:35.901Z,40.6
2018-09-17T05:45:37.483Z,40.6
2018-09-17T05:46:39.061Z,40.6
2018-09-17T05:47:40.621Z,41.5
2018-09-17T05:48:42.200Z,40.1
2018-09-17T05:49:43.750Z,41.1
2018-09-17T05:50:45.305Z,40.6
2018-09-17T05:51:46.875Z,41.1
2018-09-17T05:52:48.460Z,40.1
2018-09-17T05:53:50.236Z,40.6
2018-09-17T05:54:52.019Z,41.1
2018-09-17T05:55:53.576Z,40.1
2018-09-17T05:56:55.122Z,40.6
2018-09-17T05:57:56.529Z,40.6
2018-09-17T05:58:58.100Z,40.6
2018-09-17T05:59:59.737Z,40.6
2018-09-17T06:01:01.448Z,40.1
2018-09-17T06:02:03.146Z,40.6
2018-09-17T06:03:04.627Z,40.6
2018-09-17T06:04:06.234Z,40.6
2018-09-17T06:05:07.840Z,41.1
2018-09-17T06:06:10.002Z,40.6
2018-09-17T06:07:12.539Z,40.6
2018-09-17T06:08:14.001Z,40.6
2018-09-17T06:09:15.566Z,41.1
2018-09-17T06:10:17.188Z,40.6
2018-09-17T06:11:18.991Z,40.6
2018-09-17T06:12:20.757Z,40.6
2018-09-17T06:13:22.348Z,40.1
2018-09-17T06:14:24.019Z,40.1
2018-09-17T06:15:25.740Z,39.6
2018-09-17T06:16:27.307Z,39.6
2018-09-17T06:17:29.395Z,39.6
2018-09-17T06:18:31.257Z,40.1
2018-09-17T06:19:32.651Z,39.6
2018-09-17T06:20:34.225Z,40.1
2018-09-17T06:21:35.462Z,39.6
2018-09-17T06:22:37.017Z,40.1
2018-09-17T06:23:38.626Z,39.1
2018-09-17T06:24:40.185Z,40.1
2018-09-17T06:25:41.766Z,40.1
2018-09-17T06:26:43.658Z,39.6
2018-09-17T06:27:45.059Z,39.6
2018-09-17T06:28:47.067Z,40.6
2018-09-17T06:29:48.968Z,39.6
2018-09-17T06:30:50.551Z,39.6
2018-09-17T06:31:52.115Z,38.6
2018-09-17T06:32:53.707Z,39.6
2018-09-17T06:33:55.115Z,39.6
2018-09-17T06:34:56.677Z,39.1
2018-09-17T06:35:58.250Z,39.6
2018-09-17T06:36:59.823Z,39.6
2018-09-17T06:38:01.422Z,39.6
2018-09-17T06:39:02.833Z,40.1
2018-09-17T06:40:04.281Z,38.6
2018-09-17T06:41:05.849Z,39.6
2018-09-17T06:42:07.412Z,39.6
2018-09-17T06:43:09.003Z,39.6
2018-09-17T06:44:10.636Z,39.1
2018-09-17T06:45:12.209Z,38.6
2018-09-17T06:46:13.790Z,39.1
2018-09-17T06:47:15.329Z,38.6
2018-09-17T06:48:16.776Z,39.1
2018-09-17T06:49:18.342Z,39.6
2018-09-17T06:50:19.905Z,39.1
2018-09-17T06:51:21.578Z,38.6
2018-09-17T06:52:23.367Z,38.6
2018-09-17T06:53:24.962Z,39.1
2018-09-17T06:54:26.380Z,38.6
2018-09-17T06:55:27.969Z,38.1
2018-09-17T06:56:29.536Z,39.1
2018-09-17T06:57:31.101Z,39.6
2018-09-17T06:58:32.651Z,39.1
2018-09-17T06:59:34.213Z,39.1
2018-09-17T07:00:35.797Z,38.6
2018-09-17T07:01:37.199Z,38.6
2018-09-17T07:02:38.784Z,38.1
2018-09-17T07:03:40.336Z,39.1
2018-09-17T07:04:41.921Z,39.6
2018-09-17T07:05:43.469Z,38.6
2018-09-17T07:06:45.036Z,38.6
2018-09-17T07:07:46.618Z,39.6
2018-09-17T07:08:48.179Z,38.1
2018-09-17T07:09:49.752Z,38.1
2018-09-17T07:10:51.317Z,39.1
2018-09-17T07:11:52.880Z,38.1
2018-09-17T07:12:54.448Z,38.6
2018-09-17T07:13:56.003Z,38.6
2018-09-17T07:14:57.665Z,38.1
2018-09-17T07:15:59.059Z,38.6
2018-09-17T07:17:00.632Z,38.6
2018-09-17T07:18:02.420Z,39.6
2018-09-17T07:19:04.098Z,38.6
2018-09-17T07:20:05.659Z,38.6
2018-09-17T07:21:07.227Z,39.1
2018-09-17T07:22:08.798Z,39.6
2018-09-17T07:23:10.351Z,39.6
2018-09-17T07:24:11.929Z,39.6
2018-09-17T07:25:13.722Z,40.1
2018-09-17T07:26:15.386Z,39.6
2018-09-17T07:27:16.953Z,39.1
2018-09-17T07:28:18.510Z,40.6
2018-09-17T07:29:20.078Z,40.1
2018-09-17T07:30:21.671Z,40.6
2018-09-17T07:31:23.062Z,40.1
2018-09-17T07:32:24.639Z,40.1
2018-09-17T07:33:26.199Z,40.6
2018-09-17T07:34:27.769Z,40.6
2018-09-17T07:35:29.317Z,40.6
2018-09-17T07:36:31.402Z,41.1
2018-09-17T07:37:33.367Z,41.5
2018-09-17T07:38:34.930Z,40.6
2018-09-17T07:39:36.517Z,40.6
2018-09-17T07:40:37.940Z,41.1
2018-09-17T07:41:39.377Z,41.1
2018-09-17T07:42:40.963Z,41.1
2018-09-17T07:43:42.564Z,40.6
2018-09-17T07:44:44.150Z,41.1
2018-09-17T07:45:45.652Z,40.6
2018-09-17T07:46:47.365Z,41.1
2018-09-17T07:47:49.084Z,40.6
2018-09-17T07:48:50.833Z,41.1
2018-09-17T07:49:52.384Z,40.6
2018-09-17T07:50:53.978Z,41.1
2018-09-17T07:51:55.549Z,41.5
2018-09-17T07:52:57.498Z,40.6
2018-09-17T07:53:59.299Z,41.1
2018-09-17T07:55:00.879Z,40.6
2018-09-17T07:56:02.457Z,41.1
2018-09-17T07:57:04.034Z,40.6
2018-09-17T07:58:05.605Z,41.1
2018-09-17T07:59:07.174Z,40.6
2018-09-17T08:00:08.839Z,40.6
2018-09-17T08:01:10.508Z,40.6
2018-09-17T08:02:12.109Z,40.6
2018-09-17T08:03:13.665Z,40.1
2018-09-17T08:04:15.249Z,40.1
2018-09-17T08:05:16.656Z,40.6
2018-09-17T08:06:18.222Z,40.1
2018-09-17T08:07:19.786Z,39.6
2018-09-17T08:08:21.371Z,40.1
2018-09-17T08:09:22.949Z,40.1
2018-09-17T08:10:24.524Z,39.6
2018-09-17T08:11:26.098Z,40.6
2018-09-17T08:12:27.676Z,40.1
2018-09-17T08:13:29.238Z,39.6
2018-09-17T08:14:30.813Z,40.1
2018-09-17T08:15:32.397Z,39.6
2018-09-17T08:16:33.973Z,40.1
2018-09-17T08:17:35.545Z,39.6
2018-09-17T08:18:37.123Z,39.6
2018-09-17T08:19:38.979Z,40.6
2018-09-17T08:20:40.504Z,40.1
2018-09-17T08:21:42.075Z,40.1
2018-09-17T08:22:43.648Z,40.1
2018-09-17T08:23:45.219Z,39.6
2018-09-17T08:24:46.778Z,40.1
2018-09-17T08:25:48.349Z,39.1
2018-09-17T08:26:49.968Z,39.6
2018-09-17T08:27:51.532Z,39.6
2018-09-17T08:28:52.950Z,39.6
2018-09-17T08:29:54.548Z,40.1
2018-09-17T08:30:55.967Z,40.1
2018-09-17T08:31:57.526Z,39.1
2018-09-17T08:32:59.099Z,39.6
2018-09-17T08:34:00.662Z,39.1
2018-09-17T08:35:02.221Z,39.1
2018-09-17T08:36:03.794Z,39.6
2018-09-17T08:37:05.362Z,40.1
2018-09-17T08:38:07.025Z,40.1
2018-09-17T08:39:08.705Z,39.1
2018-09-17T08:40:10.268Z,40.1
2018-09-17T08:41:11.839Z,39.1
2018-09-17T08:42:13.257Z,39.1
2018-09-17T08:43:14.849Z,39.6
2018-09-17T08:44:16.416Z,39.1
2018-09-17T08:45:17.993Z,40.1
2018-09-17T08:46:19.578Z,39.1
2018-09-17T08:47:20.814Z,40.1
2018-09-17T08:48:22.399Z,39.1
2018-09-17T08:49:23.976Z,39.1
2018-09-17T08:50:25.659Z,39.1
2018-09-17T08:51:27.417Z,39.1
2018-09-17T08:52:29.116Z,39.1
2018-09-17T08:53:30.682Z,39.1
2018-09-17T08:54:32.267Z,39.1
2018-09-17T08:55:33.861Z,39.1
2018-09-17T08:56:35.422Z,39.1
2018-09-17T08:57:36.988Z,38.6
2018-09-17T08:58:38.585Z,38.6
2018-09-17T08:59:40.143Z,38.6
2018-09-17T09:00:41.728Z,39.1
2018-09-17T09:01:43.299Z,39.1
2018-09-17T09:02:44.718Z,38.6
2018-09-17T09:03:46.111Z,38.6
2018-09-17T09:04:47.687Z,38.6
2018-09-17T09:05:49.264Z,39.1
2018-09-17T09:06:50.679Z,38.6
2018-09-17T09:07:52.252Z,39.1
2018-09-17T09:08:53.827Z,39.1
2018-09-17T09:09:55.377Z,38.1
2018-09-17T09:10:56.948Z,39.1
2018-09-17T09:11:58.358Z,40.1
2018-09-17T09:12:59.949Z,38.6
2018-09-17T09:14:01.530Z,39.6
2018-09-17T09:15:03.146Z,38.6
2018-09-17T09:16:04.708Z,39.6
2018-09-17T09:17:06.278Z,38.6
2018-09-17T09:18:07.860Z,39.6
2018-09-17T09:19:09.466Z,40.1
2018-09-17T09:20:11.037Z,39.6
2018-09-17T09:21:12.636Z,40.6
2018-09-17T09:22:14.026Z,40.1
2018-09-17T09:23:15.439Z,40.1
2018-09-17T09:24:17.009Z,40.1
2018-09-17T09:25:18.589Z,41.1
2018-09-17T09:26:20.439Z,40.6
2018-09-17T09:27:22.327Z,41.1
2018-09-17T09:28:23.893Z,40.1
2018-09-17T09:29:25.531Z,40.6
2018-09-17T09:30:27.095Z,41.1
2018-09-17T09:31:28.698Z,41.1
2018-09-17T09:32:30.267Z,40.1
2018-09-17T09:33:31.843Z,41.1
2018-09-17T09:34:33.411Z,41.5
2018-09-17T09:35:34.802Z,41.1
2018-09-17T09:36:36.371Z,41.5
2018-09-17T09:37:37.943Z,40.6
2018-09-17T09:38:39.501Z,41.1
2018-09-17T09:39:41.064Z,41.1
2018-09-17T09:40:42.658Z,40.6
2018-09-17T09:41:44.242Z,40.6
2018-09-17T09:42:45.800Z,40.6
2018-09-17T09:43:47.376Z,42
2018-09-17T09:44:48.934Z,41.1
2018-09-17T09:45:50.507Z,40.6
2018-09-17T09:46:51.928Z,40.6
2018-09-17T09:47:53.529Z,40.1
2018-09-17T09:48:54.936Z,39.6
2018-09-17T09:49:56.487Z,40.6
2018-09-17T09:50:57.919Z,41.1
2018-09-17T09:51:59.488Z,41.1
2018-09-17T09:53:01.056Z,41.1
2018-09-17T09:54:02.618Z,40.6
2018-09-17T09:55:04.189Z,40.6
2018-09-17T09:56:05.766Z,40.6
2018-09-17T09:57:07.323Z,40.6
2018-09-17T09:58:08.926Z,40.6
2018-09-17T09:59:10.485Z,40.1
2018-09-17T10:00:12.057Z,40.6
2018-09-17T10:01:13.636Z,40.1
2018-09-17T10:02:15.244Z,40.1
2018-09-17T10:03:16.817Z,40.6
2018-09-17T10:04:18.367Z,40.1
2018-09-17T10:05:19.952Z,40.1
2018-09-17T10:06:21.513Z,40.1
2018-09-17T10:07:23.126Z,40.6
2018-09-17T10:08:24.690Z,40.6
2018-09-17T10:09:26.247Z,40.1
2018-09-17T10:10:27.817Z,40.1
2018-09-17T10:11:29.479Z,39.6
2018-09-17T10:12:31.161Z,39.6
2018-09-17T10:13:32.740Z,40.1
2018-09-17T10:14:34.320Z,39.1
2018-09-17T10:15:35.915Z,39.6
2018-09-17T10:16:37.488Z,39.6
2018-09-17T10:17:39.026Z,40.6
2018-09-17T10:18:40.587Z,39.6
2018-09-17T10:19:41.977Z,40.1
2018-09-17T10:20:43.599Z,39.6
2018-09-17T10:21:45.191Z,39.6
2018-09-17T10:22:46.755Z,39.6
2018-09-17T10:23:48.315Z,39.6
2018-09-17T10:24:49.874Z,39.1
2018-09-17T10:25:51.440Z,40.1
2018-09-17T10:26:53.011Z,39.6
2018-09-17T10:27:54.566Z,39.6
2018-09-17T10:30:05.687Z,39.1
2018-09-17T10:31:07.123Z,39.6
2018-09-17T10:32:08.702Z,40.1
2018-09-17T10:33:10.264Z,39.6
2018-09-17T10:34:11.864Z,39.6
2018-09-17T10:35:13.441Z,39.6
2018-09-17T10:36:14.865Z,39.1
2018-09-17T10:37:16.257Z,39.1
2018-09-17T10:38:17.818Z,39.1
2018-09-17T10:39:19.388Z,39.1
2018-09-17T10:40:20.976Z,39.1
2018-09-17T10:41:22.562Z,39.6
2018-09-17T10:42:24.197Z,39.1
2018-09-17T10:43:25.763Z,38.6
2018-09-17T10:44:27.163Z,39.6
2018-09-17T10:45:28.728Z,38.6
2018-09-17T10:46:30.297Z,39.1
2018-09-17T10:47:31.868Z,38.6
2018-09-17T10:48:33.442Z,38.6
2018-09-17T10:49:35.019Z,39.1
2018-09-17T10:50:36.602Z,39.1
2018-09-17T10:51:38.176Z,38.6
2018-09-17T10:52:39.789Z,38.6
2018-09-17T10:53:41.348Z,39.1
2018-09-17T10:54:42.929Z,39.1
2018-09-17T10:55:44.347Z,38.6
2018-09-17T10:56:45.913Z,39.1
2018-09-17T10:57:47.354Z,39.1
2018-09-17T10:58:48.913Z,39.1
2018-09-17T10:59:50.324Z,39.1
2018-09-17T11:00:51.907Z,39.6
2018-09-17T11:01:53.522Z,39.1
2018-09-17T11:02:55.103Z,39.6
2018-09-17T11:03:56.780Z,39.6
2018-09-17T11:04:58.354Z,40.1
2018-09-17T11:05:59.767Z,39.6
2018-09-17T11:07:01.183Z,40.1
2018-09-17T11:08:02.764Z,40.1
2018-09-17T11:09:04.338Z,40.1
2018-09-17T11:10:05.937Z,40.1
2018-09-17T11:11:07.608Z,40.1
2018-09-17T11:12:09.271Z,40.1
2018-09-17T11:13:10.847Z,40.1
2018-09-17T11:14:12.235Z,41.5
2018-09-17T11:15:13.632Z,40.6
2018-09-17T11:16:15.197Z,41.1
2018-09-17T11:17:17.156Z,41.1
2018-09-17T11:18:18.692Z,41.1
2018-09-17T11:19:20.268Z,40.6
2018-09-17T11:20:21.835Z,41.1
2018-09-17T11:21:23.409Z,41.1
2018-09-17T11:22:24.985Z,41.1
2018-09-17T11:23:26.546Z,41.1
2018-09-17T11:24:28.116Z,40.6
2018-09-17T11:25:29.719Z,41.1
2018-09-17T11:26:31.273Z,41.1
2018-09-17T11:27:32.858Z,40.6
2018-09-17T11:28:34.250Z,41.5
2018-09-17T11:29:35.822Z,40.6
2018-09-17T11:30:37.398Z,41.1
2018-09-17T11:31:38.968Z,40.6
2018-09-17T11:32:40.363Z,40.6
2018-09-17T11:33:41.748Z,41.1
2018-09-17T11:34:43.178Z,41.5
2018-09-17T11:35:44.750Z,41.1
2018-09-17T11:36:46.309Z,40.6
2018-09-17T11:37:47.867Z,40.6
2018-09-17T11:38:49.454Z,41.1
2018-09-17T11:39:51.006Z,40.1
2018-09-17T11:40:52.413Z,40.6
2018-09-17T11:41:53.827Z,40.6
2018-09-17T11:42:55.398Z,41.1
2018-09-17T11:43:56.966Z,40.1
2018-09-17T11:44:58.542Z,41.1
2018-09-17T11:46:00.184Z,40.6
2018-09-17T11:47:01.947Z,40.6
2018-09-17T11:48:03.639Z,40.6
2018-09-17T11:49:05.307Z,41.1
2018-09-17T11:50:06.901Z,40.6
2018-09-17T11:51:08.487Z,40.1
2018-09-17T11:52:10.070Z,40.6
2018-09-17T11:53:11.679Z,40.1
2018-09-17T11:54:13.267Z,40.1
2018-09-17T11:55:14.829Z,40.1
2018-09-17T11:56:16.397Z,40.1
2018-09-17T11:57:18.164Z,40.1
2018-09-17T11:58:19.818Z,41.1
2018-09-17T11:59:21.413Z,40.1
2018-09-17T12:00:22.980Z,40.1
2018-09-17T12:01:24.419Z,40.1
2018-09-17T12:02:25.985Z,40.6
2018-09-17T12:03:27.383Z,40.1
2018-09-17T12:04:28.970Z,40.1
2018-09-17T12:05:30.527Z,39.6
2018-09-17T12:06:32.266Z,40.1
2018-09-17T12:07:33.932Z,40.1
2018-09-17T12:08:35.628Z,39.6
2018-09-17T12:09:37.189Z,40.1
2018-09-17T12:10:38.771Z,39.6
2018-09-17T12:11:40.366Z,39.6
2018-09-17T12:12:41.956Z,40.1
2018-09-17T12:13:43.521Z,39.6
2018-09-17T12:14:45.079Z,40.6
2018-09-17T12:15:46.649Z,40.1
2018-09-17T12:16:48.206Z,40.1
2018-09-17T12:17:49.784Z,39.6
2018-09-17T12:18:51.346Z,39.1
2018-09-17T12:19:52.910Z,40.1
2018-09-17T12:20:54.475Z,39.6
2018-09-17T12:21:56.045Z,39.1
2018-09-17T12:22:57.436Z,39.1
2018-09-17T12:23:59.353Z,39.6
2018-09-17T12:25:01.107Z,40.1
2018-09-17T12:26:02.516Z,39.6
2018-09-17T12:27:04.080Z,39.6
2018-09-17T12:28:05.648Z,39.1
2018-09-17T12:29:07.280Z,40.1
2018-09-17T12:30:08.929Z,39.6
2018-09-17T12:31:10.533Z,39.6
2018-09-17T12:32:12.120Z,39.1
2018-09-17T12:33:13.693Z,38.1
2018-09-17T12:34:15.268Z,39.1
2018-09-17T12:35:16.824Z,39.1
2018-09-17T12:36:18.384Z,39.1
2018-09-17T12:37:19.951Z,39.6
2018-09-17T12:38:21.529Z,38.6
2018-09-17T12:39:23.083Z,39.6
2018-09-17T12:40:24.660Z,39.6
2018-09-17T12:41:26.077Z,39.6
2018-09-17T12:42:27.678Z,39.1
2018-09-17T12:43:29.257Z,39.1
2018-09-17T12:44:30.505Z,39.1
2018-09-17T12:45:32.077Z,39.1
2018-09-17T12:46:33.663Z,38.6
2018-09-17T12:47:35.070Z,39.1
2018-09-17T12:48:36.477Z,38.6
2018-09-17T12:49:38.041Z,38.6
2018-09-17T12:50:39.675Z,38.6
2018-09-17T12:51:41.081Z,38.6
2018-09-17T12:52:42.636Z,39.6
2018-09-17T12:53:44.210Z,38.1
2018-09-17T12:54:45.789Z,39.1
2018-09-17T12:55:47.384Z,39.6
2018-09-17T12:56:48.935Z,39.6
2018-09-17T12:57:50.491Z,38.6
2018-09-17T12:58:51.933Z,39.6
2018-09-17T12:59:53.548Z,39.6
2018-09-17T13:00:55.151Z,39.6
2018-09-17T13:01:56.818Z,39.6
2018-09-17T13:02:58.386Z,39.1
2018-09-17T13:03:59.957Z,39.6
2018-09-17T13:05:01.560Z,40.6
2018-09-17T13:06:03.141Z,40.1
2018-09-17T13:07:04.706Z,40.6
2018-09-17T13:08:06.296Z,40.6
2018-09-17T13:09:07.886Z,41.1
2018-09-17T13:10:09.429Z,40.6
2018-09-17T13:11:10.859Z,41.5
2018-09-17T13:12:12.445Z,39.6
2018-09-17T13:13:14.017Z,41.1
2018-09-17T13:14:15.445Z,40.6
2018-09-17T13:15:17.007Z,41.1
2018-09-17T13:16:18.598Z,40.6
2018-09-17T13:17:20.189Z,40.6
2018-09-17T13:18:21.761Z,41.5
2018-09-17T13:19:23.178Z,41.1
2018-09-17T13:20:24.970Z,41.5
2018-09-17T13:21:26.558Z,41.1
2018-09-17T13:22:28.136Z,40.6
2018-09-17T13:23:29.553Z,40.1
2018-09-17T13:24:31.136Z,41.1
2018-09-17T13:25:32.688Z,40.6
2018-09-17T13:26:34.105Z,41.1
2018-09-17T13:27:35.718Z,41.1
2018-09-17T13:28:37.303Z,40.6
2018-09-17T13:29:38.907Z,40.6
2018-09-17T13:30:40.498Z,41.5
2018-09-17T13:31:42.268Z,41.1
2018-09-17T13:32:44.071Z,41.5
2018-09-17T13:33:45.523Z,41.1
2018-09-17T13:34:47.131Z,40.6
2018-09-17T13:35:48.710Z,41.1
2018-09-17T13:36:50.377Z,41.5
2018-09-17T13:37:51.978Z,41.1
2018-09-17T13:38:53.559Z,41.1
2018-09-17T13:39:55.128Z,41.1
2018-09-17T13:40:56.706Z,40.6